sensor_id;sensor_type;location;lat;lon;timestamp;P1;durP1;ratioP1;P2;durP2;ratioP2
67272;SDS011;54190;49.770;9.250;2023-08-24T00:00:09;11.87;;;8.27;;
67272;SDS011;54190;49.770;9.250;2023-08-24T00:02:36;9.37;;;8.10;;
67272;SDS011;54190;49.770;9.250;2023-08-24T00:05:02;12.03;;;8.10;;
67272;SDS011;54190;49.770;9.250;2023-08-24T00:07:29;11.53;;;8.47;;
67272;SDS011;54190;49.770;9.250;2023-08-24T00:09:55;10.77;;;8.97;;
67272;SDS011;54190;49.770;9.250;2023-08-24T00:12:20;10.00;;;7.67;;
67272;SDS011;54190;49.770;9.250;2023-08-24T00:14:46;10.50;;;8.50;;
67272;SDS011;54190;49.770;9.250;2023-08-24T00:17:12;12.33;;;8.83;;
67272;SDS011;54190;49.770;9.250;2023-08-24T00:19:37;11.53;;;7.90;;
67272;SDS011;54190;49.770;9.250;2023-08-24T00:22:03;11.33;;;8.50;;
67272;SDS011;54190;49.770;9.250;2023-08-24T00:24:29;10.13;;;8.90;;
67272;SDS011;54190;49.770;9.250;2023-08-24T00:26:54;9.43;;;8.27;;
67272;SDS011;54190;49.770;9.250;2023-08-24T00:29:20;9.20;;;7.87;;
67272;SDS011;54190;49.770;9.250;2023-08-24T00:31:48;11.97;;;9.00;;
67272;SDS011;54190;49.770;9.250;2023-08-24T00:34:13;15.97;;;9.13;;
67272;SDS011;54190;49.770;9.250;2023-08-24T00:36:39;9.87;;;8.87;;
67272;SDS011;54190;49.770;9.250;2023-08-24T00:39:05;10.20;;;8.77;;
67272;SDS011;54190;49.770;9.250;2023-08-24T00:41:31;11.83;;;8.50;;
67272;SDS011;54190;49.770;9.250;2023-08-24T00:43:57;9.33;;;8.10;;
67272;SDS011;54190;49.770;9.250;2023-08-24T00:46:23;14.87;;;8.67;;
67272;SDS011;54190;49.770;9.250;2023-08-24T00:48:52;9.47;;;8.50;;
67272;SDS011;54190;49.770;9.250;2023-08-24T00:51:22;10.87;;;8.50;;
67272;SDS011;54190;49.770;9.250;2023-08-24T00:53:49;12.70;;;8.20;;
67272;SDS011;54190;49.770;9.250;2023-08-24T00:56:15;10.70;;;8.53;;
67272;SDS011;54190;49.770;9.250;2023-08-24T00:58:42;10.90;;;8.60;;
67272;SDS011;54190;49.770;9.250;2023-08-24T01:01:10;12.20;;;8.80;;
67272;SDS011;54190;49.770;9.250;2023-08-24T01:03:36;15.37;;;9.60;;
67272;SDS011;54190;49.770;9.250;2023-08-24T01:06:01;11.60;;;8.80;;
67272;SDS011;54190;49.770;9.250;2023-08-24T01:08:27;10.03;;;8.43;;
67272;SDS011;54190;49.770;9.250;2023-08-24T01:10:58;10.97;;;8.10;;
67272;SDS011;54190;49.770;9.250;2023-08-24T01:13:43;16.00;;;8.90;;
67272;SDS011;54190;49.770;9.250;2023-08-24T01:16:16;9.77;;;8.73;;
67272;SDS011;54190;49.770;9.250;2023-08-24T01:18:45;17.30;;;9.20;;
67272;SDS011;54190;49.770;9.250;2023-08-24T01:21:12;11.17;;;9.40;;
67272;SDS011;54190;49.770;9.250;2023-08-24T01:23:43;11.10;;;9.20;;
67272;SDS011;54190;49.770;9.250;2023-08-24T01:26:19;9.43;;;8.50;;
67272;SDS011;54190;49.770;9.250;2023-08-24T01:28:46;12.23;;;9.10;;
67272;SDS011;54190;49.770;9.250;2023-08-24T01:31:16;9.77;;;8.77;;
67272;SDS011;54190;49.770;9.250;2023-08-24T01:33:42;11.70;;;8.90;;
67272;SDS011;54190;49.770;9.250;2023-08-24T01:36:09;12.57;;;9.33;;
67272;SDS011;54190;49.770;9.250;2023-08-24T01:38:38;12.57;;;9.03;;
67272;SDS011;54190;49.770;9.250;2023-08-24T01:43:38;9.77;;;8.70;;
67272;SDS011;54190;49.770;9.250;2023-08-24T01:46:07;9.77;;;8.77;;
67272;SDS011;54190;49.770;9.250;2023-08-24T01:48:33;12.03;;;9.10;;
67272;SDS011;54190;49.770;9.250;2023-08-24T01:50:59;10.17;;;9.10;;
67272;SDS011;54190;49.770;9.250;2023-08-24T01:53:27;11.90;;;9.23;;
67272;SDS011;54190;49.770;9.250;2023-08-24T01:55:58;10.93;;;8.73;;
67272;SDS011;54190;49.770;9.250;2023-08-24T01:58:23;12.10;;;9.00;;
67272;SDS011;54190;49.770;9.250;2023-08-24T02:00:49;13.23;;;8.67;;
67272;SDS011;54190;49.770;9.250;2023-08-24T02:03:15;11.50;;;8.87;;
67272;SDS011;54190;49.770;9.250;2023-08-24T02:05:41;10.53;;;9.47;;
67272;SDS011;54190;49.770;9.250;2023-08-24T02:08:06;13.80;;;9.30;;
67272;SDS011;54190;49.770;9.250;2023-08-24T02:10:32;10.10;;;8.67;;
67272;SDS011;54190;49.770;9.250;2023-08-24T02:12:57;14.03;;;9.73;;
67272;SDS011;54190;49.770;9.250;2023-08-24T02:15:23;10.97;;;9.50;;
67272;SDS011;54190;49.770;9.250;2023-08-24T02:17:49;10.80;;;9.20;;
67272;SDS011;54190;49.770;9.250;2023-08-24T02:20:15;12.73;;;8.90;;
67272;SDS011;54190;49.770;9.250;2023-08-24T02:22:41;9.70;;;8.70;;
67272;SDS011;54190;49.770;9.250;2023-08-24T02:25:08;12.90;;;9.17;;
67272;SDS011;54190;49.770;9.250;2023-08-24T02:27:34;9.47;;;8.50;;
67272;SDS011;54190;49.770;9.250;2023-08-24T02:30:00;13.90;;;8.93;;
67272;SDS011;54190;49.770;9.250;2023-08-24T02:32:25;11.40;;;8.67;;
67272;SDS011;54190;49.770;9.250;2023-08-24T02:34:51;11.10;;;8.70;;
67272;SDS011;54190;49.770;9.250;2023-08-24T02:37:17;14.43;;;9.40;;
67272;SDS011;54190;49.770;9.250;2023-08-24T02:39:42;14.33;;;9.20;;
67272;SDS011;54190;49.770;9.250;2023-08-24T02:42:08;9.63;;;8.63;;
67272;SDS011;54190;49.770;9.250;2023-08-24T02:44:34;10.70;;;8.87;;
67272;SDS011;54190;49.770;9.250;2023-08-24T02:47:00;9.53;;;8.63;;
67272;SDS011;54190;49.770;9.250;2023-08-24T02:49:25;11.93;;;9.40;;
67272;SDS011;54190;49.770;9.250;2023-08-24T02:51:51;10.67;;;9.27;;
67272;SDS011;54190;49.770;9.250;2023-08-24T02:54:16;12.20;;;9.57;;
67272;SDS011;54190;49.770;9.250;2023-08-24T02:56:42;15.73;;;10.50;;
67272;SDS011;54190;49.770;9.250;2023-08-24T02:59:08;14.33;;;9.73;;
67272;SDS011;54190;49.770;9.250;2023-08-24T03:01:34;11.80;;;10.57;;
67272;SDS011;54190;49.770;9.250;2023-08-24T03:04:03;14.17;;;9.17;;
67272;SDS011;54190;49.770;9.250;2023-08-24T03:06:30;13.33;;;9.37;;
67272;SDS011;54190;49.770;9.250;2023-08-24T03:08:56;11.43;;;9.50;;
67272;SDS011;54190;49.770;9.250;2023-08-24T03:11:22;11.43;;;9.27;;
67272;SDS011;54190;49.770;9.250;2023-08-24T03:13:47;14.00;;;10.03;;
67272;SDS011;54190;49.770;9.250;2023-08-24T03:16:13;10.33;;;8.67;;
67272;SDS011;54190;49.770;9.250;2023-08-24T03:18:39;12.20;;;10.07;;
67272;SDS011;54190;49.770;9.250;2023-08-24T03:21:05;14.30;;;9.70;;
67272;SDS011;54190;49.770;9.250;2023-08-24T03:23:33;11.80;;;10.03;;
67272;SDS011;54190;49.770;9.250;2023-08-24T03:25:58;11.10;;;9.43;;
67272;SDS011;54190;49.770;9.250;2023-08-24T03:28:24;10.97;;;9.77;;
67272;SDS011;54190;49.770;9.250;2023-08-24T03:30:50;10.53;;;9.43;;
67272;SDS011;54190;49.770;9.250;2023-08-24T03:33:17;12.17;;;10.83;;
67272;SDS011;54190;49.770;9.250;2023-08-24T03:35:44;12.27;;;9.70;;
67272;SDS011;54190;49.770;9.250;2023-08-24T03:38:10;11.87;;;10.63;;
67272;SDS011;54190;49.770;9.250;2023-08-24T03:40:36;10.50;;;9.23;;
67272;SDS011;54190;49.770;9.250;2023-08-24T03:43:02;12.03;;;9.63;;
67272;SDS011;54190;49.770;9.250;2023-08-24T03:45:28;10.33;;;9.23;;
67272;SDS011;54190;49.770;9.250;2023-08-24T03:47:54;11.00;;;9.70;;
67272;SDS011;54190;49.770;9.250;2023-08-24T03:50:19;11.83;;;9.17;;
67272;SDS011;54190;49.770;9.250;2023-08-24T03:52:46;11.97;;;9.77;;
67272;SDS011;54190;49.770;9.250;2023-08-24T03:55:12;14.50;;;10.20;;
67272;SDS011;54190;49.770;9.250;2023-08-24T03:57:37;15.00;;;10.00;;
67272;SDS011;54190;49.770;9.250;2023-08-24T04:00:03;12.47;;;10.00;;
67272;SDS011;54190;49.770;9.250;2023-08-24T04:02:41;14.53;;;9.53;;
67272;SDS011;54190;49.770;9.250;2023-08-24T04:05:11;12.40;;;11.10;;
67272;SDS011;54190;49.770;9.250;2023-08-24T04:07:37;12.37;;;10.43;;
67272;SDS011;54190;49.770;9.250;2023-08-24T04:10:03;12.10;;;10.63;;
67272;SDS011;54190;49.770;9.250;2023-08-24T04:12:32;13.83;;;10.17;;
67272;SDS011;54190;49.770;9.250;2023-08-24T04:14:58;12.30;;;10.00;;
67272;SDS011;54190;49.770;9.250;2023-08-24T04:17:24;12.63;;;10.47;;
67272;SDS011;54190;49.770;9.250;2023-08-24T04:19:50;17.13;;;10.33;;
67272;SDS011;54190;49.770;9.250;2023-08-24T04:22:16;15.90;;;10.47;;
67272;SDS011;54190;49.770;9.250;2023-08-24T04:24:41;13.87;;;10.23;;
67272;SDS011;54190;49.770;9.250;2023-08-24T04:27:07;20.67;;;12.17;;
67272;SDS011;54190;49.770;9.250;2023-08-24T04:29:33;16.80;;;11.30;;
67272;SDS011;54190;49.770;9.250;2023-08-24T04:31:58;14.27;;;10.20;;
67272;SDS011;54190;49.770;9.250;2023-08-24T04:34:24;11.50;;;9.60;;
67272;SDS011;54190;49.770;9.250;2023-08-24T04:36:51;11.90;;;10.57;;
67272;SDS011;54190;49.770;9.250;2023-08-24T04:39:17;16.80;;;11.23;;
67272;SDS011;54190;49.770;9.250;2023-08-24T04:41:44;12.50;;;11.20;;
67272;SDS011;54190;49.770;9.250;2023-08-24T04:44:09;17.90;;;10.97;;
67272;SDS011;54190;49.770;9.250;2023-08-24T04:46:35;12.50;;;11.30;;
67272;SDS011;54190;49.770;9.250;2023-08-24T04:49:01;14.07;;;10.20;;
67272;SDS011;54190;49.770;9.250;2023-08-24T04:51:26;12.90;;;10.40;;
67272;SDS011;54190;49.770;9.250;2023-08-24T04:53:53;12.57;;;10.20;;
67272;SDS011;54190;49.770;9.250;2023-08-24T04:56:19;16.03;;;9.90;;
67272;SDS011;54190;49.770;9.250;2023-08-24T04:58:57;11.07;;;9.83;;
67272;SDS011;54190;49.770;9.250;2023-08-24T05:01:23;14.03;;;10.17;;
67272;SDS011;54190;49.770;9.250;2023-08-24T05:03:50;14.53;;;10.43;;
67272;SDS011;54190;49.770;9.250;2023-08-24T05:06:17;12.80;;;10.47;;
67272;SDS011;54190;49.770;9.250;2023-08-24T05:08:43;15.10;;;9.67;;
67272;SDS011;54190;49.770;9.250;2023-08-24T05:11:17;11.30;;;10.10;;
67272;SDS011;54190;49.770;9.250;2023-08-24T05:13:44;13.47;;;10.50;;
67272;SDS011;54190;49.770;9.250;2023-08-24T05:16:12;13.10;;;10.90;;
67272;SDS011;54190;49.770;9.250;2023-08-24T05:18:38;13.27;;;11.00;;
67272;SDS011;54190;49.770;9.250;2023-08-24T05:21:04;15.53;;;10.67;;
67272;SDS011;54190;49.770;9.250;2023-08-24T05:23:31;13.63;;;10.27;;
67272;SDS011;54190;49.770;9.250;2023-08-24T05:25:58;14.70;;;9.33;;
67272;SDS011;54190;49.770;9.250;2023-08-24T05:28:24;16.40;;;11.20;;
67272;SDS011;54190;49.770;9.250;2023-08-24T05:30:51;17.03;;;11.00;;
67272;SDS011;54190;49.770;9.250;2023-08-24T05:33:17;15.07;;;10.57;;
67272;SDS011;54190;49.770;9.250;2023-08-24T05:35:43;14.30;;;9.83;;
67272;SDS011;54190;49.770;9.250;2023-08-24T05:38:08;11.00;;;9.37;;
67272;SDS011;54190;49.770;9.250;2023-08-24T05:40:34;10.30;;;9.30;;
67272;SDS011;54190;49.770;9.250;2023-08-24T05:43:00;15.57;;;8.63;;
67272;SDS011;54190;49.770;9.250;2023-08-24T05:45:25;11.50;;;8.57;;
67272;SDS011;54190;49.770;9.250;2023-08-24T05:47:51;9.90;;;8.30;;
67272;SDS011;54190;49.770;9.250;2023-08-24T05:50:17;11.60;;;8.50;;
67272;SDS011;54190;49.770;9.250;2023-08-24T05:52:42;9.43;;;8.07;;
67272;SDS011;54190;49.770;9.250;2023-08-24T05:55:08;8.70;;;7.20;;
67272;SDS011;54190;49.770;9.250;2023-08-24T05:57:34;11.27;;;8.00;;
67272;SDS011;54190;49.770;9.250;2023-08-24T05:59:59;9.30;;;7.20;;
67272;SDS011;54190;49.770;9.250;2023-08-24T06:02:25;8.30;;;7.40;;
67272;SDS011;54190;49.770;9.250;2023-08-24T06:04:51;10.43;;;8.07;;
67272;SDS011;54190;49.770;9.250;2023-08-24T06:07:16;10.37;;;7.67;;
67272;SDS011;54190;49.770;9.250;2023-08-24T06:09:43;10.37;;;8.57;;
67272;SDS011;54190;49.770;9.250;2023-08-24T06:12:09;11.03;;;9.10;;
67272;SDS011;54190;49.770;9.250;2023-08-24T06:14:35;11.40;;;10.20;;
67272;SDS011;54190;49.770;9.250;2023-08-24T06:17:00;11.27;;;10.03;;
67272;SDS011;54190;49.770;9.250;2023-08-24T06:19:26;12.87;;;10.33;;
67272;SDS011;54190;49.770;9.250;2023-08-24T06:21:52;11.50;;;10.30;;
67272;SDS011;54190;49.770;9.250;2023-08-24T06:24:17;11.67;;;9.57;;
67272;SDS011;54190;49.770;9.250;2023-08-24T06:26:43;11.60;;;9.80;;
67272;SDS011;54190;49.770;9.250;2023-08-24T06:29:08;11.43;;;9.30;;
67272;SDS011;54190;49.770;9.250;2023-08-24T06:31:34;11.50;;;9.77;;
67272;SDS011;54190;49.770;9.250;2023-08-24T06:34:00;9.80;;;8.80;;
67272;SDS011;54190;49.770;9.250;2023-08-24T06:36:25;11.07;;;9.20;;
67272;SDS011;54190;49.770;9.250;2023-08-24T06:38:51;10.20;;;8.70;;
67272;SDS011;54190;49.770;9.250;2023-08-24T06:41:17;10.77;;;9.23;;
67272;SDS011;54190;49.770;9.250;2023-08-24T06:43:42;13.10;;;8.70;;
67272;SDS011;54190;49.770;9.250;2023-08-24T06:46:08;10.87;;;8.37;;
67272;SDS011;54190;49.770;9.250;2023-08-24T06:48:34;11.43;;;8.33;;
67272;SDS011;54190;49.770;9.250;2023-08-24T06:51:00;12.27;;;7.73;;
67272;SDS011;54190;49.770;9.250;2023-08-24T06:53:26;11.70;;;8.77;;
67272;SDS011;54190;49.770;9.250;2023-08-24T06:55:55;11.93;;;8.40;;
67272;SDS011;54190;49.770;9.250;2023-08-24T06:58:21;10.63;;;9.10;;
67272;SDS011;54190;49.770;9.250;2023-08-24T07:00:46;10.47;;;8.70;;
67272;SDS011;54190;49.770;9.250;2023-08-24T07:03:12;15.80;;;8.30;;
67272;SDS011;54190;49.770;9.250;2023-08-24T07:05:38;10.57;;;9.23;;
67272;SDS011;54190;49.770;9.250;2023-08-24T07:08:04;10.07;;;8.17;;
67272;SDS011;54190;49.770;9.250;2023-08-24T07:10:30;10.73;;;8.23;;
67272;SDS011;54190;49.770;9.250;2023-08-24T07:12:56;8.47;;;7.57;;
67272;SDS011;54190;49.770;9.250;2023-08-24T07:15:22;8.80;;;7.90;;
67272;SDS011;54190;49.770;9.250;2023-08-24T07:17:47;9.40;;;8.00;;
67272;SDS011;54190;49.770;9.250;2023-08-24T07:20:13;13.43;;;7.50;;
67272;SDS011;54190;49.770;9.250;2023-08-24T07:22:39;9.67;;;8.57;;
67272;SDS011;54190;49.770;9.250;2023-08-24T07:25:05;10.73;;;8.10;;
67272;SDS011;54190;49.770;9.250;2023-08-24T07:27:32;8.50;;;7.27;;
67272;SDS011;54190;49.770;9.250;2023-08-24T07:29:58;9.60;;;8.10;;
67272;SDS011;54190;49.770;9.250;2023-08-24T07:32:25;8.60;;;7.70;;
67272;SDS011;54190;49.770;9.250;2023-08-24T07:34:51;8.30;;;7.40;;
67272;SDS011;54190;49.770;9.250;2023-08-24T07:37:17;12.00;;;7.20;;
67272;SDS011;54190;49.770;9.250;2023-08-24T07:39:43;8.53;;;7.63;;
67272;SDS011;54190;49.770;9.250;2023-08-24T07:42:08;9.27;;;8.27;;
67272;SDS011;54190;49.770;9.250;2023-08-24T07:44:34;10.83;;;9.50;;
67272;SDS011;54190;49.770;9.250;2023-08-24T07:47:00;10.80;;;8.83;;
67272;SDS011;54190;49.770;9.250;2023-08-24T07:49:27;11.90;;;9.00;;
67272;SDS011;54190;49.770;9.250;2023-08-24T07:51:52;9.43;;;8.43;;
67272;SDS011;54190;49.770;9.250;2023-08-24T07:54:18;11.97;;;8.70;;
67272;SDS011;54190;49.770;9.250;2023-08-24T07:56:43;8.97;;;8.07;;
67272;SDS011;54190;49.770;9.250;2023-08-24T07:59:09;10.23;;;8.90;;
67272;SDS011;54190;49.770;9.250;2023-08-24T08:01:35;8.97;;;7.60;;
67272;SDS011;54190;49.770;9.250;2023-08-24T08:04:00;11.20;;;7.70;;
67272;SDS011;54190;49.770;9.250;2023-08-24T08:06:26;8.30;;;6.97;;
67272;SDS011;54190;49.770;9.250;2023-08-24T08:08:52;8.47;;;6.57;;
67272;SDS011;54190;49.770;9.250;2023-08-24T08:11:18;10.20;;;6.90;;
67272;SDS011;54190;49.770;9.250;2023-08-24T08:13:44;9.07;;;6.93;;
67272;SDS011;54190;49.770;9.250;2023-08-24T08:16:09;7.07;;;6.30;;
67272;SDS011;54190;49.770;9.250;2023-08-24T08:18:36;10.70;;;6.67;;
67272;SDS011;54190;49.770;9.250;2023-08-24T08:21:14;9.00;;;7.27;;
67272;SDS011;54190;49.770;9.250;2023-08-24T08:23:43;10.40;;;7.70;;
67272;SDS011;54190;49.770;9.250;2023-08-24T08:26:10;9.63;;;7.00;;
67272;SDS011;54190;49.770;9.250;2023-08-24T08:28:36;9.03;;;6.50;;
67272;SDS011;54190;49.770;9.250;2023-08-24T08:31:02;10.07;;;6.00;;
67272;SDS011;54190;49.770;9.250;2023-08-24T08:33:28;7.07;;;6.20;;
67272;SDS011;54190;49.770;9.250;2023-08-24T08:35:55;8.30;;;6.23;;
67272;SDS011;54190;49.770;9.250;2023-08-24T08:38:21;7.03;;;5.73;;
67272;SDS011;54190;49.770;9.250;2023-08-24T08:40:50;8.87;;;6.57;;
67272;SDS011;54190;49.770;9.250;2023-08-24T08:43:18;11.87;;;5.90;;
67272;SDS011;54190;49.770;9.250;2023-08-24T08:45:46;6.10;;;5.40;;
67272;SDS011;54190;49.770;9.250;2023-08-24T08:48:15;7.33;;;4.73;;
67272;SDS011;54190;49.770;9.250;2023-08-24T08:50:40;8.60;;;5.50;;
67272;SDS011;54190;49.770;9.250;2023-08-24T08:53:07;8.03;;;5.00;;
67272;SDS011;54190;49.770;9.250;2023-08-24T08:55:32;8.40;;;5.03;;
67272;SDS011;54190;49.770;9.250;2023-08-24T08:57:58;10.23;;;5.70;;
67272;SDS011;54190;49.770;9.250;2023-08-24T09:00:27;9.10;;;4.97;;
67272;SDS011;54190;49.770;9.250;2023-08-24T09:02:53;7.27;;;5.20;;
67272;SDS011;54190;49.770;9.250;2023-08-24T09:05:21;5.83;;;4.80;;
67272;SDS011;54190;49.770;9.250;2023-08-24T09:07:51;5.93;;;4.73;;
67272;SDS011;54190;49.770;9.250;2023-08-24T09:10:19;9.20;;;5.43;;
67272;SDS011;54190;49.770;9.250;2023-08-24T09:12:45;5.60;;;4.57;;
67272;SDS011;54190;49.770;9.250;2023-08-24T09:15:11;7.63;;;4.87;;
67272;SDS011;54190;49.770;9.250;2023-08-24T09:17:41;6.40;;;4.90;;
67272;SDS011;54190;49.770;9.250;2023-08-24T09:20:08;8.33;;;4.03;;
67272;SDS011;54190;49.770;9.250;2023-08-24T09:22:35;4.70;;;4.20;;
67272;SDS011;54190;49.770;9.250;2023-08-24T09:25:02;6.70;;;4.63;;
67272;SDS011;54190;49.770;9.250;2023-08-24T09:27:29;8.20;;;4.97;;
67272;SDS011;54190;49.770;9.250;2023-08-24T09:29:56;10.33;;;4.40;;
67272;SDS011;54190;49.770;9.250;2023-08-24T09:32:22;5.30;;;4.27;;
67272;SDS011;54190;49.770;9.250;2023-08-24T09:34:49;7.03;;;4.90;;
67272;SDS011;54190;49.770;9.250;2023-08-24T09:37:15;8.83;;;4.70;;
67272;SDS011;54190;49.770;9.250;2023-08-24T09:39:41;10.77;;;4.37;;
67272;SDS011;54190;49.770;9.250;2023-08-24T09:42:08;5.47;;;4.07;;
67272;SDS011;54190;49.770;9.250;2023-08-24T09:44:33;5.93;;;4.30;;
67272;SDS011;54190;49.770;9.250;2023-08-24T09:46:59;11.60;;;4.20;;
67272;SDS011;54190;49.770;9.250;2023-08-24T09:49:25;6.23;;;4.73;;
67272;SDS011;54190;49.770;9.250;2023-08-24T09:51:55;7.00;;;4.17;;
67272;SDS011;54190;49.770;9.250;2023-08-24T09:54:27;5.70;;;4.23;;
67272;SDS011;54190;49.770;9.250;2023-08-24T09:56:55;5.83;;;4.13;;
67272;SDS011;54190;49.770;9.250;2023-08-24T09:59:23;4.50;;;3.90;;
67272;SDS011;54190;49.770;9.250;2023-08-24T10:01:53;4.80;;;4.03;;
67272;SDS011;54190;49.770;9.250;2023-08-24T10:04:22;6.97;;;4.40;;
67272;SDS011;54190;49.770;9.250;2023-08-24T10:06:51;5.80;;;3.87;;
67272;SDS011;54190;49.770;9.250;2023-08-24T10:09:21;5.77;;;4.07;;
67272;SDS011;54190;49.770;9.250;2023-08-24T10:11:53;6.33;;;3.90;;
67272;SDS011;54190;49.770;9.250;2023-08-24T10:14:29;5.30;;;3.90;;
67272;SDS011;54190;49.770;9.250;2023-08-24T10:17:00;5.73;;;4.07;;
67272;SDS011;54190;49.770;9.250;2023-08-24T10:19:26;5.87;;;4.03;;
67272;SDS011;54190;49.770;9.250;2023-08-24T10:21:54;5.70;;;4.00;;
67272;SDS011;54190;49.770;9.250;2023-08-24T10:24:22;7.80;;;4.30;;
67272;SDS011;54190;49.770;9.250;2023-08-24T10:26:48;7.33;;;4.70;;
67272;SDS011;54190;49.770;9.250;2023-08-24T10:29:16;8.17;;;4.07;;
67272;SDS011;54190;49.770;9.250;2023-08-24T10:31:42;6.63;;;4.50;;
67272;SDS011;54190;49.770;9.250;2023-08-24T10:34:08;4.70;;;3.30;;
67272;SDS011;54190;49.770;9.250;2023-08-24T10:36:35;10.47;;;4.73;;
67272;SDS011;54190;49.770;9.250;2023-08-24T10:39:03;6.07;;;4.03;;
67272;SDS011;54190;49.770;9.250;2023-08-24T10:41:48;9.87;;;4.23;;
67272;SDS011;54190;49.770;9.250;2023-08-24T10:44:24;4.73;;;3.67;;
67272;SDS011;54190;49.770;9.250;2023-08-24T10:52:20;10.27;;;4.10;;
67272;SDS011;54190;49.770;9.250;2023-08-24T10:54:55;8.10;;;3.90;;
67272;SDS011;54190;49.770;9.250;2023-08-24T11:02:48;4.73;;;3.67;;
67272;SDS011;54190;49.770;9.250;2023-08-24T11:05:16;7.93;;;3.60;;
67272;SDS011;54190;49.770;9.250;2023-08-24T11:07:59;5.90;;;3.73;;
67272;SDS011;54190;49.770;9.250;2023-08-24T11:13:11;5.57;;;3.83;;
67272;SDS011;54190;49.770;9.250;2023-08-24T11:20:46;5.30;;;3.80;;
67272;SDS011;54190;49.770;9.250;2023-08-24T11:23:15;6.43;;;3.70;;
67272;SDS011;54190;49.770;9.250;2023-08-24T11:25:42;5.50;;;3.80;;
67272;SDS011;54190;49.770;9.250;2023-08-24T11:28:08;8.17;;;3.60;;
67272;SDS011;54190;49.770;9.250;2023-08-24T11:30:34;7.70;;;3.50;;
67272;SDS011;54190;49.770;9.250;2023-08-24T11:33:00;7.67;;;3.70;;
67272;SDS011;54190;49.770;9.250;2023-08-24T11:35:27;5.23;;;3.43;;
67272;SDS011;54190;49.770;9.250;2023-08-24T11:37:53;6.60;;;3.83;;
67272;SDS011;54190;49.770;9.250;2023-08-24T11:40:19;8.50;;;3.87;;
67272;SDS011;54190;49.770;9.250;2023-08-24T11:42:46;4.80;;;3.90;;
67272;SDS011;54190;49.770;9.250;2023-08-24T11:45:12;8.73;;;3.80;;
67272;SDS011;54190;49.770;9.250;2023-08-24T11:47:39;8.10;;;3.50;;
67272;SDS011;54190;49.770;9.250;2023-08-24T11:50:06;7.63;;;3.80;;
67272;SDS011;54190;49.770;9.250;2023-08-24T11:52:33;9.43;;;4.13;;
67272;SDS011;54190;49.770;9.250;2023-08-24T11:55:07;4.40;;;3.57;;
67272;SDS011;54190;49.770;9.250;2023-08-24T11:57:37;6.40;;;3.70;;
67272;SDS011;54190;49.770;9.250;2023-08-24T12:00:03;9.97;;;3.77;;
67272;SDS011;54190;49.770;9.250;2023-08-24T12:02:33;4.40;;;3.37;;
67272;SDS011;54190;49.770;9.250;2023-08-24T12:04:59;6.73;;;3.73;;
67272;SDS011;54190;49.770;9.250;2023-08-24T12:07:25;7.57;;;3.57;;
67272;SDS011;54190;49.770;9.250;2023-08-24T12:09:53;4.30;;;3.40;;
67272;SDS011;54190;49.770;9.250;2023-08-24T12:12:20;4.50;;;3.70;;
67272;SDS011;54190;49.770;9.250;2023-08-24T12:14:48;5.23;;;3.50;;
67272;SDS011;54190;49.770;9.250;2023-08-24T12:17:15;6.40;;;3.67;;
67272;SDS011;54190;49.770;9.250;2023-08-24T12:19:42;5.47;;;4.20;;
67272;SDS011;54190;49.770;9.250;2023-08-24T12:22:19;6.50;;;4.10;;
67272;SDS011;54190;49.770;9.250;2023-08-24T12:24:45;5.50;;;4.00;;
67272;SDS011;54190;49.770;9.250;2023-08-24T12:27:18;6.17;;;3.83;;
67272;SDS011;54190;49.770;9.250;2023-08-24T12:29:51;9.10;;;4.23;;
67272;SDS011;54190;49.770;9.250;2023-08-24T12:32:17;9.53;;;4.30;;
67272;SDS011;54190;49.770;9.250;2023-08-24T12:34:48;7.30;;;3.90;;
67272;SDS011;54190;49.770;9.250;2023-08-24T12:37:17;5.80;;;3.50;;
67272;SDS011;54190;49.770;9.250;2023-08-24T12:39:42;7.67;;;4.03;;
67272;SDS011;54190;49.770;9.250;2023-08-24T12:42:08;7.37;;;3.87;;
67272;SDS011;54190;49.770;9.250;2023-08-24T12:44:34;5.20;;;3.63;;
67272;SDS011;54190;49.770;9.250;2023-08-24T12:47:01;7.27;;;3.70;;
67272;SDS011;54190;49.770;9.250;2023-08-24T12:49:27;4.37;;;3.60;;
67272;SDS011;54190;49.770;9.250;2023-08-24T12:51:53;6.00;;;3.77;;
67272;SDS011;54190;49.770;9.250;2023-08-24T12:54:19;9.90;;;4.10;;
67272;SDS011;54190;49.770;9.250;2023-08-24T12:56:45;6.70;;;3.87;;
67272;SDS011;54190;49.770;9.250;2023-08-24T12:59:10;4.10;;;3.57;;
67272;SDS011;54190;49.770;9.250;2023-08-24T13:01:37;4.77;;;4.00;;
67272;SDS011;54190;49.770;9.250;2023-08-24T13:04:03;4.43;;;3.50;;
67272;SDS011;54190;49.770;9.250;2023-08-24T13:06:29;6.23;;;4.10;;
67272;SDS011;54190;49.770;9.250;2023-08-24T13:08:55;7.60;;;4.10;;
67272;SDS011;54190;49.770;9.250;2023-08-24T13:11:21;4.70;;;4.17;;
67272;SDS011;54190;49.770;9.250;2023-08-24T13:13:48;4.47;;;3.63;;
67272;SDS011;54190;49.770;9.250;2023-08-24T13:16:14;4.33;;;3.70;;
67272;SDS011;54190;49.770;9.250;2023-08-24T13:18:40;6.13;;;3.90;;
67272;SDS011;54190;49.770;9.250;2023-08-24T13:21:05;7.33;;;4.00;;
67272;SDS011;54190;49.770;9.250;2023-08-24T13:23:31;7.40;;;4.10;;
67272;SDS011;54190;49.770;9.250;2023-08-24T13:25:58;4.77;;;3.77;;
67272;SDS011;54190;49.770;9.250;2023-08-24T13:28:24;10.47;;;4.17;;
67272;SDS011;54190;49.770;9.250;2023-08-24T13:30:50;4.57;;;4.00;;
67272;SDS011;54190;49.770;9.250;2023-08-24T13:33:16;10.07;;;4.27;;
67272;SDS011;54190;49.770;9.250;2023-08-24T13:35:43;7.57;;;3.63;;
67272;SDS011;54190;49.770;9.250;2023-08-24T13:38:09;4.90;;;3.90;;
67272;SDS011;54190;49.770;9.250;2023-08-24T13:40:34;5.20;;;3.87;;
67272;SDS011;54190;49.770;9.250;2023-08-24T13:43:00;7.67;;;3.83;;
67272;SDS011;54190;49.770;9.250;2023-08-24T13:45:26;5.80;;;4.10;;
67272;SDS011;54190;49.770;9.250;2023-08-24T13:47:51;6.33;;;3.80;;
67272;SDS011;54190;49.770;9.250;2023-08-24T13:50:23;7.03;;;3.97;;
67272;SDS011;54190;49.770;9.250;2023-08-24T13:52:55;4.20;;;3.80;;
67272;SDS011;54190;49.770;9.250;2023-08-24T13:55:21;6.10;;;3.60;;
67272;SDS011;54190;49.770;9.250;2023-08-24T13:57:50;4.63;;;3.93;;
67272;SDS011;54190;49.770;9.250;2023-08-24T14:00:16;5.90;;;4.20;;
67272;SDS011;54190;49.770;9.250;2023-08-24T14:02:43;9.53;;;4.27;;
67272;SDS011;54190;49.770;9.250;2023-08-24T14:05:10;4.63;;;4.20;;
67272;SDS011;54190;49.770;9.250;2023-08-24T14:07:39;9.23;;;3.90;;
67272;SDS011;54190;49.770;9.250;2023-08-24T14:10:08;5.43;;;4.10;;
67272;SDS011;54190;49.770;9.250;2023-08-24T14:12:35;7.60;;;4.00;;
67272;SDS011;54190;49.770;9.250;2023-08-24T14:15:01;8.70;;;3.93;;
67272;SDS011;54190;49.770;9.250;2023-08-24T14:17:28;5.23;;;4.20;;
67272;SDS011;54190;49.770;9.250;2023-08-24T14:19:57;6.50;;;3.80;;
67272;SDS011;54190;49.770;9.250;2023-08-24T14:22:56;5.50;;;3.80;;
67272;SDS011;54190;49.770;9.250;2023-08-24T14:25:29;10.40;;;4.00;;
67272;SDS011;54190;49.770;9.250;2023-08-24T14:27:55;4.50;;;3.83;;
67272;SDS011;54190;49.770;9.250;2023-08-24T14:30:25;5.37;;;4.30;;
67272;SDS011;54190;49.770;9.250;2023-08-24T14:32:52;5.33;;;4.23;;
67272;SDS011;54190;49.770;9.250;2023-08-24T14:35:18;4.30;;;3.90;;
67272;SDS011;54190;49.770;9.250;2023-08-24T14:37:44;6.90;;;4.30;;
67272;SDS011;54190;49.770;9.250;2023-08-24T14:40:10;11.37;;;4.43;;
67272;SDS011;54190;49.770;9.250;2023-08-24T14:42:37;8.40;;;4.33;;
67272;SDS011;54190;49.770;9.250;2023-08-24T14:45:12;7.13;;;4.40;;
67272;SDS011;54190;49.770;9.250;2023-08-24T14:47:44;7.57;;;4.40;;
67272;SDS011;54190;49.770;9.250;2023-08-24T14:50:11;6.00;;;3.90;;
67272;SDS011;54190;49.770;9.250;2023-08-24T14:52:38;6.30;;;4.40;;
67272;SDS011;54190;49.770;9.250;2023-08-24T14:55:05;8.20;;;4.10;;
67272;SDS011;54190;49.770;9.250;2023-08-24T14:57:33;4.83;;;3.83;;